sensor_id;sensor_type;location;lat;lon;timestamp;temperature;humidity
46309;DHT22;32037;50.820;6.494;2023-07-13T00:01:14;28.70;42.30
46309;DHT22;32037;50.820;6.494;2023-07-13T00:03:44;28.70;42.40
46309;DHT22;32037;50.820;6.494;2023-07-13T00:06:14;28.70;42.20
46309;DHT22;32037;50.820;6.494;2023-07-13T00:08:42;28.70;42.30
46309;DHT22;32037;50.820;6.494;2023-07-13T00:11:10;28.70;42.20
46309;DHT22;32037;50.820;6.494;2023-07-13T00:13:39;28.70;42.30
46309;DHT22;32037;50.820;6.494;2023-07-13T00:16:08;28.70;42.30
46309;DHT22;32037;50.820;6.494;2023-07-13T00:18:38;28.70;42.40
46309;DHT22;32037;50.820;6.494;2023-07-13T00:21:07;28.70;42.20
46309;DHT22;32037;50.820;6.494;2023-07-13T00:23:38;28.70;42.30
46309;DHT22;32037;50.820;6.494;2023-07-13T00:26:08;28.70;42.40
46309;DHT22;32037;50.820;6.494;2023-07-13T00:28:38;28.70;42.40
46309;DHT22;32037;50.820;6.494;2023-07-13T00:31:09;28.70;42.30
46309;DHT22;32037;50.820;6.494;2023-07-13T00:33:38;28.70;42.40
46309;DHT22;32037;50.820;6.494;2023-07-13T00:36:09;28.70;42.30
46309;DHT22;32037;50.820;6.494;2023-07-13T00:38:38;28.70;42.10
46309;DHT22;32037;50.820;6.494;2023-07-13T00:41:07;28.70;42.40
46309;DHT22;32037;50.820;6.494;2023-07-13T00:43:36;28.60;42.40
46309;DHT22;32037;50.820;6.494;2023-07-13T00:46:19;28.60;42.60
46309;DHT22;32037;50.820;6.494;2023-07-13T00:48:49;28.60;42.40
46309;DHT22;32037;50.820;6.494;2023-07-13T00:51:23;28.60;41.80
46309;DHT22;32037;50.820;6.494;2023-07-13T00:53:54;28.60;42.10
46309;DHT22;32037;50.820;6.494;2023-07-13T00:56:24;28.60;42.30
46309;DHT22;32037;50.820;6.494;2023-07-13T00:58:53;28.60;42.50
46309;DHT22;32037;50.820;6.494;2023-07-13T01:01:22;28.60;42.50
46309;DHT22;32037;50.820;6.494;2023-07-13T01:03:50;28.60;42.50
46309;DHT22;32037;50.820;6.494;2023-07-13T01:06:20;28.60;42.50
46309;DHT22;32037;50.820;6.494;2023-07-13T01:08:49;28.60;42.40
46309;DHT22;32037;50.820;6.494;2023-07-13T01:11:19;28.60;42.50
46309;DHT22;32037;50.820;6.494;2023-07-13T01:13:49;28.60;42.50
46309;DHT22;32037;50.820;6.494;2023-07-13T01:16:23;28.60;42.50
46309;DHT22;32037;50.820;6.494;2023-07-13T01:18:52;28.60;42.50
46309;DHT22;32037;50.820;6.494;2023-07-13T01:21:24;28.50;42.50
46309;DHT22;32037;50.820;6.494;2023-07-13T01:23:53;28.60;42.60
46309;DHT22;32037;50.820;6.494;2023-07-13T01:26:22;28.50;41.90
46309;DHT22;32037;50.820;6.494;2023-07-13T01:28:51;28.50;42.40
46309;DHT22;32037;50.820;6.494;2023-07-13T01:31:19;28.50;42.50
46309;DHT22;32037;50.820;6.494;2023-07-13T01:33:47;28.50;42.60
46309;DHT22;32037;50.820;6.494;2023-07-13T01:36:16;28.50;42.70
46309;DHT22;32037;50.820;6.494;2023-07-13T01:38:45;28.50;42.20
46309;DHT22;32037;50.820;6.494;2023-07-13T01:41:14;28.50;42.50
46309;DHT22;32037;50.820;6.494;2023-07-13T01:43:42;28.50;42.50
46309;DHT22;32037;50.820;6.494;2023-07-13T01:46:10;28.50;42.10
46309;DHT22;32037;50.820;6.494;2023-07-13T01:48:50;28.50;42.30
46309;DHT22;32037;50.820;6.494;2023-07-13T01:51:19;28.40;42.00
46309;DHT22;32037;50.820;6.494;2023-07-13T01:53:49;28.40;42.30
46309;DHT22;32037;50.820;6.494;2023-07-13T01:56:18;28.40;42.20
46309;DHT22;32037;50.820;6.494;2023-07-13T01:58:47;28.40;42.50
46309;DHT22;32037;50.820;6.494;2023-07-13T02:01:16;28.40;42.50
46309;DHT22;32037;50.820;6.494;2023-07-13T02:03:44;28.40;42.60
46309;DHT22;32037;50.820;6.494;2023-07-13T02:06:13;28.40;42.70
46309;DHT22;32037;50.820;6.494;2023-07-13T02:08:42;28.40;42.60
46309;DHT22;32037;50.820;6.494;2023-07-13T02:11:12;28.30;42.50
46309;DHT22;32037;50.820;6.494;2023-07-13T02:13:40;28.40;42.30
46309;DHT22;32037;50.820;6.494;2023-07-13T02:16:09;28.30;43.70
46309;DHT22;32037;50.820;6.494;2023-07-13T02:18:38;28.30;42.60
46309;DHT22;32037;50.820;6.494;2023-07-13T02:21:07;28.30;42.70
46309;DHT22;32037;50.820;6.494;2023-07-13T02:23:35;28.40;42.60
46309;DHT22;32037;50.820;6.494;2023-07-13T02:26:04;28.30;42.50
46309;DHT22;32037;50.820;6.494;2023-07-13T02:28:34;28.30;42.50
46309;DHT22;32037;50.820;6.494;2023-07-13T02:31:07;28.30;42.30
46309;DHT22;32037;50.820;6.494;2023-07-13T02:33:35;28.30;42.20
46309;DHT22;32037;50.820;6.494;2023-07-13T02:36:05;28.30;42.60
46309;DHT22;32037;50.820;6.494;2023-07-13T02:38:34;28.30;42.40
46309;DHT22;32037;50.820;6.494;2023-07-13T02:41:03;28.30;42.60
46309;DHT22;32037;50.820;6.494;2023-07-13T02:43:32;28.30;42.70
46309;DHT22;32037;50.820;6.494;2023-07-13T02:46:02;28.30;42.70
46309;DHT22;32037;50.820;6.494;2023-07-13T02:48:36;28.20;42.40
46309;DHT22;32037;50.820;6.494;2023-07-13T02:51:05;28.20;42.70
46309;DHT22;32037;50.820;6.494;2023-07-13T02:53:34;28.20;42.70
46309;DHT22;32037;50.820;6.494;2023-07-13T02:56:04;28.20;42.70
46309;DHT22;32037;50.820;6.494;2023-07-13T02:58:33;28.20;42.60
46309;DHT22;32037;50.820;6.494;2023-07-13T03:01:09;28.20;42.70
46309;DHT22;32037;50.820;6.494;2023-07-13T03:03:38;28.20;42.70
46309;DHT22;32037;50.820;6.494;2023-07-13T03:06:07;28.20;42.70
46309;DHT22;32037;50.820;6.494;2023-07-13T03:08:45;28.20;42.70
46309;DHT22;32037;50.820;6.494;2023-07-13T03:11:16;28.20;42.70
46309;DHT22;32037;50.820;6.494;2023-07-13T03:13:50;28.20;42.80
46309;DHT22;32037;50.820;6.494;2023-07-13T03:16:21;28.20;42.60
46309;DHT22;32037;50.820;6.494;2023-07-13T03:18:52;28.10;42.70
46309;DHT22;32037;50.820;6.494;2023-07-13T03:21:20;28.10;42.70
46309;DHT22;32037;50.820;6.494;2023-07-13T03:23:48;28.10;42.90
46309;DHT22;32037;50.820;6.494;2023-07-13T03:26:19;28.10;43.50
46309;DHT22;32037;50.820;6.494;2023-07-13T03:28:48;28.10;42.60
46309;DHT22;32037;50.820;6.494;2023-07-13T03:31:24;28.10;42.80
46309;DHT22;32037;50.820;6.494;2023-07-13T03:33:53;28.10;42.90
46309;DHT22;32037;50.820;6.494;2023-07-13T03:36:25;28.10;42.90
46309;DHT22;32037;50.820;6.494;2023-07-13T03:38:58;28.10;42.80
46309;DHT22;32037;50.820;6.494;2023-07-13T03:41:35;28.10;43.10
46309;DHT22;32037;50.820;6.494;2023-07-13T03:44:04;28.00;43.20
46309;DHT22;32037;50.820;6.494;2023-07-13T03:46:33;28.00;42.70
46309;DHT22;32037;50.820;6.494;2023-07-13T03:49:04;28.00;43.30
46309;DHT22;32037;50.820;6.494;2023-07-13T03:51:33;28.00;43.20
46309;DHT22;32037;50.820;6.494;2023-07-13T03:54:01;28.00;44.40
46309;DHT22;32037;50.820;6.494;2023-07-13T03:56:30;28.00;42.90
46309;DHT22;32037;50.820;6.494;2023-07-13T03:59:02;28.00;43.20
46309;DHT22;32037;50.820;6.494;2023-07-13T04:01:32;27.90;44.50
46309;DHT22;32037;50.820;6.494;2023-07-13T04:04:00;28.00;43.30
46309;DHT22;32037;50.820;6.494;2023-07-13T04:06:31;27.90;42.90
46309;DHT22;32037;50.820;6.494;2023-07-13T04:09:02;28.00;43.20
46309;DHT22;32037;50.820;6.494;2023-07-13T04:11:33;27.90;43.10
46309;DHT22;32037;50.820;6.494;2023-07-13T04:14:04;27.90;43.30
46309;DHT22;32037;50.820;6.494;2023-07-13T04:16:35;27.90;43.30
46309;DHT22;32037;50.820;6.494;2023-07-13T04:19:04;27.90;43.10
46309;DHT22;32037;50.820;6.494;2023-07-13T04:21:32;27.90;43.30
46309;DHT22;32037;50.820;6.494;2023-07-13T04:24:00;27.90;43.40
46309;DHT22;32037;50.820;6.494;2023-07-13T04:26:30;27.90;42.90
46309;DHT22;32037;50.820;6.494;2023-07-13T04:28:59;27.90;43.40
46309;DHT22;32037;50.820;6.494;2023-07-13T04:31:27;27.90;43.50
46309;DHT22;32037;50.820;6.494;2023-07-13T04:33:57;27.80;43.50
46309;DHT22;32037;50.820;6.494;2023-07-13T04:36:25;27.80;43.50
46309;DHT22;32037;50.820;6.494;2023-07-13T04:38:54;27.80;43.50
46309;DHT22;32037;50.820;6.494;2023-07-13T04:41:23;27.80;43.30
46309;DHT22;32037;50.820;6.494;2023-07-13T04:43:51;27.80;43.20
46309;DHT22;32037;50.820;6.494;2023-07-13T04:46:23;27.80;43.40
46309;DHT22;32037;50.820;6.494;2023-07-13T04:48:51;27.80;43.50
46309;DHT22;32037;50.820;6.494;2023-07-13T04:51:22;27.80;43.30
46309;DHT22;32037;50.820;6.494;2023-07-13T04:53:50;27.80;43.10
46309;DHT22;32037;50.820;6.494;2023-07-13T04:56:25;27.70;43.50
46309;DHT22;32037;50.820;6.494;2023-07-13T04:58:53;27.70;43.40
46309;DHT22;32037;50.820;6.494;2023-07-13T05:01:21;27.70;43.30
46309;DHT22;32037;50.820;6.494;2023-07-13T05:03:50;27.70;43.30
46309;DHT22;32037;50.820;6.494;2023-07-13T05:06:18;27.60;43.30
46309;DHT22;32037;50.820;6.494;2023-07-13T05:08:48;27.70;43.50
46309;DHT22;32037;50.820;6.494;2023-07-13T05:11:18;27.70;43.60
46309;DHT22;32037;50.820;6.494;2023-07-13T05:13:46;27.60;43.50
46309;DHT22;32037;50.820;6.494;2023-07-13T05:16:15;27.70;43.40
46309;DHT22;32037;50.820;6.494;2023-07-13T05:18:43;27.60;43.50
46309;DHT22;32037;50.820;6.494;2023-07-13T05:21:12;27.60;43.50
46309;DHT22;32037;50.820;6.494;2023-07-13T05:23:40;27.60;43.60
46309;DHT22;32037;50.820;6.494;2023-07-13T05:26:11;27.60;43.50
46309;DHT22;32037;50.820;6.494;2023-07-13T05:28:40;27.60;43.60
46309;DHT22;32037;50.820;6.494;2023-07-13T05:31:10;27.60;43.90
46309;DHT22;32037;50.820;6.494;2023-07-13T05:33:39;27.60;43.80
46309;DHT22;32037;50.820;6.494;2023-07-13T05:36:08;27.60;43.50
46309;DHT22;32037;50.820;6.494;2023-07-13T05:38:36;27.60;43.60
46309;DHT22;32037;50.820;6.494;2023-07-13T05:41:05;27.60;43.50
46309;DHT22;32037;50.820;6.494;2023-07-13T05:43:34;27.60;43.50
46309;DHT22;32037;50.820;6.494;2023-07-13T05:46:03;27.60;43.60
46309;DHT22;32037;50.820;6.494;2023-07-13T05:48:31;27.60;43.50
46309;DHT22;32037;50.820;6.494;2023-07-13T05:51:01;27.60;43.70
46309;DHT22;32037;50.820;6.494;2023-07-13T05:53:29;27.60;43.60
46309;DHT22;32037;50.820;6.494;2023-07-13T05:55:58;27.60;43.60
46309;DHT22;32037;50.820;6.494;2023-07-13T05:58:29;27.60;43.50
46309;DHT22;32037;50.820;6.494;2023-07-13T06:01:04;27.60;43.70
46309;DHT22;32037;50.820;6.494;2023-07-13T06:03:33;27.60;43.50
46309;DHT22;32037;50.820;6.494;2023-07-13T06:06:02;27.60;43.50
46309;DHT22;32037;50.820;6.494;2023-07-13T06:08:31;27.50;43.40
46309;DHT22;32037;50.820;6.494;2023-07-13T06:11:04;27.60;43.50
46309;DHT22;32037;50.820;6.494;2023-07-13T06:13:32;27.50;43.60
46309;DHT22;32037;50.820;6.494;2023-07-13T06:16:03;27.50;43.70
46309;DHT22;32037;50.820;6.494;2023-07-13T06:18:32;27.50;43.50
46309;DHT22;32037;50.820;6.494;2023-07-13T06:21:05;27.50;44.00
46309;DHT22;32037;50.820;6.494;2023-07-13T06:23:33;27.50;43.80
46309;DHT22;32037;50.820;6.494;2023-07-13T06:26:01;27.50;43.70
46309;DHT22;32037;50.820;6.494;2023-07-13T06:28:33;27.50;43.70
46309;DHT22;32037;50.820;6.494;2023-07-13T06:31:07;27.50;43.50
46309;DHT22;32037;50.820;6.494;2023-07-13T06:33:37;27.50;43.90
46309;DHT22;32037;50.820;6.494;2023-07-13T06:36:06;27.50;43.90
46309;DHT22;32037;50.820;6.494;2023-07-13T06:38:36;27.40;43.50
46309;DHT22;32037;50.820;6.494;2023-07-13T06:41:05;27.40;44.00
46309;DHT22;32037;50.820;6.494;2023-07-13T06:43:34;27.40;43.90
46309;DHT22;32037;50.820;6.494;2023-07-13T06:46:02;27.40;44.00
46309;DHT22;32037;50.820;6.494;2023-07-13T06:48:32;27.40;43.60
46309;DHT22;32037;50.820;6.494;2023-07-13T06:51:02;27.40;44.10
46309;DHT22;32037;50.820;6.494;2023-07-13T06:53:30;27.40;43.90
46309;DHT22;32037;50.820;6.494;2023-07-13T06:55:59;27.40;43.80
46309;DHT22;32037;50.820;6.494;2023-07-13T06:58:27;27.40;43.70
46309;DHT22;32037;50.820;6.494;2023-07-13T07:00:56;27.40;43.60
46309;DHT22;32037;50.820;6.494;2023-07-13T07:03:24;27.40;43.90
46309;DHT22;32037;50.820;6.494;2023-07-13T07:05:59;27.40;43.90
46309;DHT22;32037;50.820;6.494;2023-07-13T07:08:27;27.30;43.90
46309;DHT22;32037;50.820;6.494;2023-07-13T07:10:56;27.30;43.70
46309;DHT22;32037;50.820;6.494;2023-07-13T07:13:24;27.30;43.90
46309;DHT22;32037;50.820;6.494;2023-07-13T07:15:52;27.30;43.90
46309;DHT22;32037;50.820;6.494;2023-07-13T07:18:21;27.30;44.20
46309;DHT22;32037;50.820;6.494;2023-07-13T07:20:49;27.30;44.20
46309;DHT22;32037;50.820;6.494;2023-07-13T07:23:19;27.30;43.80
46309;DHT22;32037;50.820;6.494;2023-07-13T07:25:47;27.30;43.90
46309;DHT22;32037;50.820;6.494;2023-07-13T07:28:16;27.30;43.70
46309;DHT22;32037;50.820;6.494;2023-07-13T07:30:54;27.30;43.90
46309;DHT22;32037;50.820;6.494;2023-07-13T07:33:25;27.30;44.50
46309;DHT22;32037;50.820;6.494;2023-07-13T07:35:54;27.30;39.20
46309;DHT22;32037;50.820;6.494;2023-07-13T07:38:26;27.00;37.50
46309;DHT22;32037;50.820;6.494;2023-07-13T07:40:55;26.30;40.20
46309;DHT22;32037;50.820;6.494;2023-07-13T07:43:26;26.30;41.20
46309;DHT22;32037;50.820;6.494;2023-07-13T07:45:54;26.40;41.80
46309;DHT22;32037;50.820;6.494;2023-07-13T07:48:23;26.50;43.30
46309;DHT22;32037;50.820;6.494;2023-07-13T07:50:51;26.60;41.90
46309;DHT22;32037;50.820;6.494;2023-07-13T07:53:20;26.70;41.90
46309;DHT22;32037;50.820;6.494;2023-07-13T07:55:50;26.70;41.60
46309;DHT22;32037;50.820;6.494;2023-07-13T07:58:21;26.80;42.00
46309;DHT22;32037;50.820;6.494;2023-07-13T08:00:53;26.80;41.80
46309;DHT22;32037;50.820;6.494;2023-07-13T08:03:24;26.80;41.80
46309;DHT22;32037;50.820;6.494;2023-07-13T08:05:55;26.90;42.10
46309;DHT22;32037;50.820;6.494;2023-07-13T08:08:44;26.90;41.80
46309;DHT22;32037;50.820;6.494;2023-07-13T08:11:14;26.90;41.90
46309;DHT22;32037;50.820;6.494;2023-07-13T08:13:45;26.90;41.90
46309;DHT22;32037;50.820;6.494;2023-07-13T08:16:15;27.00;42.10
46309;DHT22;32037;50.820;6.494;2023-07-13T08:18:43;27.00;42.10
46309;DHT22;32037;50.820;6.494;2023-07-13T08:21:12;27.00;42.00
46309;DHT22;32037;50.820;6.494;2023-07-13T08:23:43;26.90;42.00
46309;DHT22;32037;50.820;6.494;2023-07-13T08:26:11;27.00;42.00
46309;DHT22;32037;50.820;6.494;2023-07-13T08:28:41;27.00;42.10
46309;DHT22;32037;50.820;6.494;2023-07-13T08:31:10;27.00;41.90
46309;DHT22;32037;50.820;6.494;2023-07-13T08:33:39;26.90;42.20
46309;DHT22;32037;50.820;6.494;2023-07-13T08:36:08;27.00;42.20
46309;DHT22;32037;50.820;6.494;2023-07-13T08:38:36;27.00;42.20
46309;DHT22;32037;50.820;6.494;2023-07-13T08:41:11;27.00;42.20
46309;DHT22;32037;50.820;6.494;2023-07-13T08:43:45;27.00;42.60
46309;DHT22;32037;50.820;6.494;2023-07-13T08:46:19;26.90;38.80
46309;DHT22;32037;50.820;6.494;2023-07-13T08:48:51;26.60;38.90
46309;DHT22;32037;50.820;6.494;2023-07-13T08:51:29;26.10;40.00
46309;DHT22;32037;50.820;6.494;2023-07-13T08:54:01;25.90;40.80
46309;DHT22;32037;50.820;6.494;2023-07-13T08:56:31;25.90;41.40
46309;DHT22;32037;50.820;6.494;2023-07-13T08:59:06;26.10;41.70
46309;DHT22;32037;50.820;6.494;2023-07-13T09:01:47;26.20;41.70
46309;DHT22;32037;50.820;6.494;2023-07-13T09:04:25;26.30;41.60
46309;DHT22;32037;50.820;6.494;2023-07-13T09:07:05;26.30;41.50
46309;DHT22;32037;50.820;6.494;2023-07-13T09:09:44;26.40;41.50
46309;DHT22;32037;50.820;6.494;2023-07-13T09:12:19;26.50;41.40
46309;DHT22;32037;50.820;6.494;2023-07-13T09:14:53;26.50;41.50
46309;DHT22;32037;50.820;6.494;2023-07-13T09:17:25;26.50;41.50
46309;DHT22;32037;50.820;6.494;2023-07-13T09:20:01;26.60;41.30
46309;DHT22;32037;50.820;6.494;2023-07-13T09:22:34;26.60;41.40
46309;DHT22;32037;50.820;6.494;2023-07-13T09:25:06;26.60;41.30
46309;DHT22;32037;50.820;6.494;2023-07-13T09:27:43;26.60;41.30
46309;DHT22;32037;50.820;6.494;2023-07-13T09:30:25;26.70;41.00
46309;DHT22;32037;50.820;6.494;2023-07-13T09:32:55;26.70;40.80
46309;DHT22;32037;50.820;6.494;2023-07-13T09:35:27;26.70;41.10
46309;DHT22;32037;50.820;6.494;2023-07-13T09:38:06;26.70;41.10
46309;DHT22;32037;50.820;6.494;2023-07-13T09:40:54;26.70;40.60
46309;DHT22;32037;50.820;6.494;2023-07-13T09:43:26;26.70;40.50
46309;DHT22;32037;50.820;6.494;2023-07-13T09:45:57;26.70;40.60
46309;DHT22;32037;50.820;6.494;2023-07-13T09:48:34;26.70;41.10
46309;DHT22;32037;50.820;6.494;2023-07-13T09:51:09;26.70;41.00
46309;DHT22;32037;50.820;6.494;2023-07-13T09:53:42;26.70;40.70
46309;DHT22;32037;50.820;6.494;2023-07-13T09:56:20;26.70;40.60
46309;DHT22;32037;50.820;6.494;2023-07-13T09:58:49;26.70;41.10
46309;DHT22;32037;50.820;6.494;2023-07-13T10:01:31;26.70;41.10
46309;DHT22;32037;50.820;6.494;2023-07-13T10:04:01;26.70;41.30
46309;DHT22;32037;50.820;6.494;2023-07-13T10:06:30;26.70;41.00
46309;DHT22;32037;50.820;6.494;2023-07-13T10:08:58;26.70;40.60
46309;DHT22;32037;50.820;6.494;2023-07-13T10:11:29;26.70;40.80
46309;DHT22;32037;50.820;6.494;2023-07-13T10:13:59;26.70;40.70
46309;DHT22;32037;50.820;6.494;2023-07-13T10:16:31;26.70;41.10
46309;DHT22;32037;50.820;6.494;2023-07-13T10:19:05;26.70;41.00
46309;DHT22;32037;50.820;6.494;2023-07-13T10:21:43;26.70;40.80
46309;DHT22;32037;50.820;6.494;2023-07-13T10:24:18;26.70;40.80
46309;DHT22;32037;50.820;6.494;2023-07-13T10:26:52;26.70;41.10
46309;DHT22;32037;50.820;6.494;2023-07-13T10:29:24;26.70;41.30
46309;DHT22;32037;50.820;6.494;2023-07-13T10:31:55;26.70;40.80
46309;DHT22;32037;50.820;6.494;2023-07-13T10:34:25;26.70;40.60
46309;DHT22;32037;50.820;6.494;2023-07-13T10:36:53;26.70;41.10
46309;DHT22;32037;50.820;6.494;2023-07-13T10:39:26;26.70;41.00
46309;DHT22;32037;50.820;6.494;2023-07-13T10:41:58;26.70;41.30
46309;DHT22;32037;50.820;6.494;2023-07-13T10:44:29;26.70;41.30
46309;DHT22;32037;50.820;6.494;2023-07-13T10:47:02;26.70;41.10
46309;DHT22;32037;50.820;6.494;2023-07-13T10:49:32;26.70;41.10
46309;DHT22;32037;50.820;6.494;2023-07-13T10:52:02;26.70;41.00
46309;DHT22;32037;50.820;6.494;2023-07-13T10:54:32;26.70;41.30
46309;DHT22;32037;50.820;6.494;2023-07-13T10:57:18;26.70;41.50
46309;DHT22;32037;50.820;6.494;2023-07-13T10:59:49;26.70;41.50
46309;DHT22;32037;50.820;6.494;2023-07-13T11:02:41;26.70;41.10
46309;DHT22;32037;50.820;6.494;2023-07-13T11:05:25;26.70;41.40
46309;DHT22;32037;50.820;6.494;2023-07-13T11:08:02;26.70;41.20
46309;DHT22;32037;50.820;6.494;2023-07-13T11:10:47;26.70;41.60
46309;DHT22;32037;50.820;6.494;2023-07-13T11:13:36;26.70;41.30
46309;DHT22;32037;50.820;6.494;2023-07-13T11:16:13;26.70;41.60
46309;DHT22;32037;50.820;6.494;2023-07-13T11:18:44;26.70;41.60
46309;DHT22;32037;50.820;6.494;2023-07-13T11:21:15;26.70;41.60
46309;DHT22;32037;50.820;6.494;2023-07-13T11:24:03;26.70;41.40
46309;DHT22;32037;50.820;6.494;2023-07-13T11:26:40;26.70;41.60
46309;DHT22;32037;50.820;6.494;2023-07-13T11:29:12;26.70;41.50
46309;DHT22;32037;50.820;6.494;2023-07-13T11:31:54;26.70;41.40
46309;DHT22;32037;50.820;6.494;2023-07-13T11:34:28;26.70;41.80
46309;DHT22;32037;50.820;6.494;2023-07-13T11:36:59;26.70;41.70
46309;DHT22;32037;50.820;6.494;2023-07-13T11:39:34;26.70;41.90
46309;DHT22;32037;50.820;6.494;2023-07-13T11:42:14;26.70;41.60
46309;DHT22;32037;50.820;6.494;2023-07-13T11:44:47;26.70;41.80
46309;DHT22;32037;50.820;6.494;2023-07-13T11:47:34;26.70;41.90
46309;DHT22;32037;50.820;6.494;2023-07-13T11:50:05;26.70;42.20
46309;DHT22;32037;50.820;6.494;2023-07-13T11:52:35;26.70;41.60
46309;DHT22;32037;50.820;6.494;2023-07-13T11:55:14;26.70;41.50
46309;DHT22;32037;50.820;6.494;2023-07-13T11:57:47;26.70;40.50
46309;DHT22;32037;50.820;6.494;2023-07-13T12:00:21;26.60;40.70
46309;DHT22;32037;50.820;6.494;2023-07-13T12:02:54;26.60;41.70
46309;DHT22;32037;50.820;6.494;2023-07-13T12:05:25;26.60;41.80
46309;DHT22;32037;50.820;6.494;2023-07-13T12:07:53;26.60;41.70
46309;DHT22;32037;50.820;6.494;2023-07-13T12:10:24;26.60;41.60
46309;DHT22;32037;50.820;6.494;2023-07-13T12:12:55;26.70;41.40
46309;DHT22;32037;50.820;6.494;2023-07-13T12:15:28;26.60;41.40
46309;DHT22;32037;50.820;6.494;2023-07-13T12:17:58;26.60;41.50
46309;DHT22;32037;50.820;6.494;2023-07-13T12:20:35;26.60;41.60
46309;DHT22;32037;50.820;6.494;2023-07-13T12:23:06;26.60;41.60
46309;DHT22;32037;50.820;6.494;2023-07-13T12:25:39;26.70;41.90
46309;DHT22;32037;50.820;6.494;2023-07-13T12:28:21;26.70;41.80
46309;DHT22;32037;50.820;6.494;2023-07-13T12:30:50;26.70;41.60
46309;DHT22;32037;50.820;6.494;2023-07-13T12:33:27;26.70;41.90
46309;DHT22;32037;50.820;6.494;2023-07-13T12:36:01;26.60;41.60
46309;DHT22;32037;50.820;6.494;2023-07-13T12:38:31;26.60;41.20
46309;DHT22;32037;50.820;6.494;2023-07-13T12:41:01;26.60;41.30
46309;DHT22;32037;50.820;6.494;2023-07-13T12:43:34;26.70;41.80
46309;DHT22;32037;50.820;6.494;2023-07-13T12:46:18;26.70;41.70
46309;DHT22;32037;50.820;6.494;2023-07-13T12:48:49;26.60;41.60
46309;DHT22;32037;50.820;6.494;2023-07-13T12:51:32;26.70;41.30
46309;DHT22;32037;50.820;6.494;2023-07-13T12:54:10;26.70;41.40
46309;DHT22;32037;50.820;6.494;2023-07-13T12:56:41;26.70;41.80
46309;DHT22;32037;50.820;6.494;2023-07-13T12:59:16;26.70;41.60
46309;DHT22;32037;50.820;6.494;2023-07-13T13:01:46;26.70;41.80
46309;DHT22;32037;50.820;6.494;2023-07-13T13:04:17;26.70;41.50
46309;DHT22;32037;50.820;6.494;2023-07-13T13:07:00;26.70;41.30
46309;DHT22;32037;50.820;6.494;2023-07-13T13:09:29;26.70;41.70
46309;DHT22;32037;50.820;6.494;2023-07-13T13:11:58;26.70;41.60
46309;DHT22;32037;50.820;6.494;2023-07-13T13:14:28;26.70;41.60
46309;DHT22;32037;50.820;6.494;2023-07-13T13:16:57;26.70;41.20
46309;DHT22;32037;50.820;6.494;2023-07-13T13:19:29;26.70;41.80
46309;DHT22;32037;50.820;6.494;2023-07-13T13:21:59;26.70;40.60
46309;DHT22;32037;50.820;6.494;2023-07-13T13:24:31;26.70;41.00
46309;DHT22;32037;50.820;6.494;2023-07-13T13:27:00;26.70;40.90
46309;DHT22;32037;50.820;6.494;2023-07-13T13:29:32;26.70;40.50
46309;DHT22;32037;50.820;6.494;2023-07-13T13:32:01;26.70;41.30
46309;DHT22;32037;50.820;6.494;2023-07-13T13:34:34;26.70;40.90
46309;DHT22;32037;50.820;6.494;2023-07-13T13:37:19;26.70;40.70
46309;DHT22;32037;50.820;6.494;2023-07-13T13:39:48;26.70;41.60
46309;DHT22;32037;50.820;6.494;2023-07-13T13:42:34;26.70;41.50
46309;DHT22;32037;50.820;6.494;2023-07-13T13:45:04;26.70;41.40
46309;DHT22;32037;50.820;6.494;2023-07-13T13:47:33;26.70;41.00
46309;DHT22;32037;50.820;6.494;2023-07-13T13:50:12;26.70;40.90
46309;DHT22;32037;50.820;6.494;2023-07-13T13:52:44;26.70;41.30
46309;DHT22;32037;50.820;6.494;2023-07-13T13:55:13;26.70;41.20
46309;DHT22;32037;50.820;6.494;2023-07-13T13:57:42;26.70;41.40
46309;DHT22;32037;50.820;6.494;2023-07-13T14:00:12;26.70;40.90
46309;DHT22;32037;50.820;6.494;2023-07-13T14:02:46;26.70;41.20
46309;DHT22;32037;50.820;6.494;2023-07-13T14:05:21;26.70;41.00
46309;DHT22;32037;50.820;6.494;2023-07-13T14:07:51;26.70;41.20
46309;DHT22;32037;50.820;6.494;2023-07-13T14:10:20;26.80;40.70
46309;DHT22;32037;50.820;6.494;2023-07-13T14:12:51;26.80;41.10
46309;DHT22;32037;50.820;6.494;2023-07-13T14:15:22;26.80;41.30
46309;DHT22;32037;50.820;6.494;2023-07-13T14:17:51;26.80;41.30
46309;DHT22;32037;50.820;6.494;2023-07-13T14:20:21;26.80;41.40
46309;DHT22;32037;50.820;6.494;2023-07-13T14:22:52;26.80;41.00
46309;DHT22;32037;50.820;6.494;2023-07-13T14:25:22;26.80;41.80
46309;DHT22;32037;50.820;6.494;2023-07-13T14:27:55;26.80;41.40
46309;DHT22;32037;50.820;6.494;2023-07-13T14:30:26;26.80;41.10
46309;DHT22;32037;50.820;6.494;2023-07-13T14:32:58;26.80;41.30
46309;DHT22;32037;50.820;6.494;2023-07-13T14:35:27;26.80;41.80
46309;DHT22;32037;50.820;6.494;2023-07-13T14:37:59;26.80;41.10
46309;DHT22;32037;50.820;6.494;2023-07-13T14:40:30;26.80;41.30
46309;DHT22;32037;50.820;6.494;2023-07-13T14:42:59;26.80;41.20
46309;DHT22;32037;50.820;6.494;2023-07-13T14:45:29;26.80;40.80
46309;DHT22;32037;50.820;6.494;2023-07-13T14:47:59;26.80;40.60
46309;DHT22;32037;50.820;6.494;2023-07-13T14:50:30;26.80;40.70
46309;DHT22;32037;50.820;6.494;2023-07-13T14:53:01;26.80;41.70
46309;DHT22;32037;50.820;6.494;2023-07-13T14:55:30;26.80;41.60
46309;DHT22;32037;50.820;6.494;2023-07-13T14:57:59;26.80;40.70
46309;DHT22;32037;50.820;6.494;2023-07-13T15:00:28;26.80;41.20
46309;DHT22;32037;50.820;6.494;2023-07-13T15:02:59;26.80;41.40
46309;DHT22;32037;50.820;6.494;2023-07-13T15:05:31;26.80;41.90
46309;DHT22;32037;50.820;6.494;2023-07-13T15:08:02;26.80;41.60
46309;DHT22;32037;50.820;6.494;2023-07-13T15:10:32;26.80;41.60
46309;DHT22;32037;50.820;6.494;2023-07-13T15:13:13;26.80;41.60
46309;DHT22;32037;50.820;6.494;2023-07-13T15:15:45;26.80;41.80
46309;DHT22;32037;50.820;6.494;2023-07-13T15:18:16;26.80;42.60
46309;DHT22;32037;50.820;6.494;2023-07-13T15:20:46;26.80;41.30
46309;DHT22;32037;50.820;6.494;2023-07-13T15:23:17;26.80;41.30
46309;DHT22;32037;50.820;6.494;2023-07-13T15:25:46;26.80;42.00
46309;DHT22;32037;50.820;6.494;2023-07-13T15:28:15;26.80;41.80
46309;DHT22;32037;50.820;6.494;2023-07-13T15:30:47;26.80;42.10
46309;DHT22;32037;50.820;6.494;2023-07-13T15:33:19;26.80;42.10
46309;DHT22;32037;50.820;6.494;2023-07-13T15:35:49;26.80;42.10
46309;DHT22;32037;50.820;6.494;2023-07-13T15:38:22;26.80;42.10
46309;DHT22;32037;50.820;6.494;2023-07-13T15:40:54;26.80;42.20
46309;DHT22;32037;50.820;6.494;2023-07-13T15:43:23;26.80;42.40
46309;DHT22;32037;50.820;6.494;2023-07-13T15:45:52;26.80;42.40
46309;DHT22;32037;50.820;6.494;2023-07-13T15:48:22;26.80;42.50
46309;DHT22;32037;50.820;6.494;2023-07-13T15:50:53;26.80;42.40
46309;DHT22;32037;50.820;6.494;2023-07-13T15:53:25;26.80;42.70
46309;DHT22;32037;50.820;6.494;2023-07-13T15:55:54;26.80;42.60